sensor_id;sensor_type;location;lat;lon;timestamp;P1;durP1;ratioP1;P2;durP2;ratioP2
72125;SDS011;59999;51.676;22.650;2023-06-14T00:01:01;11.90;;;6.32;;
72125;SDS011;59999;51.676;22.650;2023-06-14T00:03:42;12.43;;;5.77;;
72125;SDS011;59999;51.676;22.650;2023-06-14T00:06:08;13.55;;;5.82;;
72125;SDS011;59999;51.676;22.650;2023-06-14T00:08:34;11.95;;;6.05;;
72125;SDS011;59999;51.676;22.650;2023-06-14T00:11:00;10.80;;;5.82;;
72125;SDS011;59999;51.676;22.650;2023-06-14T00:13:27;15.47;;;8.70;;
72125;SDS011;59999;51.676;22.650;2023-06-14T00:15:53;14.15;;;8.77;;
72125;SDS011;59999;51.676;22.650;2023-06-14T00:18:21;14.23;;;6.72;;
72125;SDS011;59999;51.676;22.650;2023-06-14T00:20:49;11.35;;;6.50;;
72125;SDS011;59999;51.676;22.650;2023-06-14T00:23:16;11.87;;;6.57;;
72125;SDS011;59999;51.676;22.650;2023-06-14T00:25:42;12.27;;;6.68;;
72125;SDS011;59999;51.676;22.650;2023-06-14T00:28:08;15.27;;;7.57;;
72125;SDS011;59999;51.676;22.650;2023-06-14T00:30:34;14.27;;;7.37;;
72125;SDS011;59999;51.676;22.650;2023-06-14T00:33:00;14.00;;;7.32;;
72125;SDS011;59999;51.676;22.650;2023-06-14T00:35:26;14.18;;;7.07;;
72125;SDS011;59999;51.676;22.650;2023-06-14T00:37:52;17.13;;;7.07;;
72125;SDS011;59999;51.676;22.650;2023-06-14T00:40:20;12.65;;;7.13;;
72125;SDS011;59999;51.676;22.650;2023-06-14T00:42:47;15.73;;;7.47;;
72125;SDS011;59999;51.676;22.650;2023-06-14T00:45:13;14.25;;;7.40;;
72125;SDS011;59999;51.676;22.650;2023-06-14T00:47:41;13.30;;;7.60;;
72125;SDS011;59999;51.676;22.650;2023-06-14T00:50:08;17.05;;;7.70;;
72125;SDS011;59999;51.676;22.650;2023-06-14T00:52:35;16.85;;;7.53;;
72125;SDS011;59999;51.676;22.650;2023-06-14T00:55:01;14.80;;;7.70;;
72125;SDS011;59999;51.676;22.650;2023-06-14T00:57:28;16.13;;;7.50;;
72125;SDS011;59999;51.676;22.650;2023-06-14T00:59:57;16.90;;;7.55;;
72125;SDS011;59999;51.676;22.650;2023-06-14T01:02:23;15.35;;;7.72;;
72125;SDS011;59999;51.676;22.650;2023-06-14T01:04:52;14.32;;;7.55;;
72125;SDS011;59999;51.676;22.650;2023-06-14T01:15:35;15.20;;;8.18;;
72125;SDS011;59999;51.676;22.650;2023-06-14T01:18:04;13.18;;;7.57;;
72125;SDS011;59999;51.676;22.650;2023-06-14T01:20:33;17.77;;;8.07;;
72125;SDS011;59999;51.676;22.650;2023-06-14T01:23:02;14.15;;;7.28;;
72125;SDS011;59999;51.676;22.650;2023-06-14T01:25:28;16.00;;;9.13;;
72125;SDS011;59999;51.676;22.650;2023-06-14T01:28:02;14.30;;;7.95;;
72125;SDS011;59999;51.676;22.650;2023-06-14T01:30:29;14.60;;;7.75;;
72125;SDS011;59999;51.676;22.650;2023-06-14T01:32:59;18.27;;;7.90;;
72125;SDS011;59999;51.676;22.650;2023-06-14T01:35:25;15.27;;;7.70;;
72125;SDS011;59999;51.676;22.650;2023-06-14T01:37:51;14.48;;;7.60;;
72125;SDS011;59999;51.676;22.650;2023-06-14T01:40:18;15.27;;;7.93;;
72125;SDS011;59999;51.676;22.650;2023-06-14T01:42:46;16.08;;;8.40;;
72125;SDS011;59999;51.676;22.650;2023-06-14T01:45:14;13.77;;;7.33;;
72125;SDS011;59999;51.676;22.650;2023-06-14T01:47:42;13.27;;;7.45;;
72125;SDS011;59999;51.676;22.650;2023-06-14T01:50:10;16.00;;;7.55;;
72125;SDS011;59999;51.676;22.650;2023-06-14T01:52:37;13.93;;;7.32;;
72125;SDS011;59999;51.676;22.650;2023-06-14T01:55:04;14.05;;;7.22;;
72125;SDS011;59999;51.676;22.650;2023-06-14T01:57:31;15.07;;;7.83;;
72125;SDS011;59999;51.676;22.650;2023-06-14T01:59:57;14.52;;;7.18;;
72125;SDS011;59999;51.676;22.650;2023-06-14T02:02:23;12.10;;;7.35;;
72125;SDS011;59999;51.676;22.650;2023-06-14T02:04:49;14.23;;;7.03;;
72125;SDS011;59999;51.676;22.650;2023-06-14T02:07:15;14.97;;;6.90;;
72125;SDS011;59999;51.676;22.650;2023-06-14T02:09:41;13.50;;;7.45;;
72125;SDS011;59999;51.676;22.650;2023-06-14T02:12:07;12.15;;;6.63;;
72125;SDS011;59999;51.676;22.650;2023-06-14T02:14:34;12.97;;;6.77;;
72125;SDS011;59999;51.676;22.650;2023-06-14T02:17:00;16.13;;;6.85;;
72125;SDS011;59999;51.676;22.650;2023-06-14T02:19:26;12.20;;;6.63;;
72125;SDS011;59999;51.676;22.650;2023-06-14T02:21:52;13.68;;;7.15;;
72125;SDS011;59999;51.676;22.650;2023-06-14T02:24:18;16.10;;;6.50;;
72125;SDS011;59999;51.676;22.650;2023-06-14T02:26:44;14.27;;;6.95;;
72125;SDS011;59999;51.676;22.650;2023-06-14T02:29:10;15.93;;;7.55;;
72125;SDS011;59999;51.676;22.650;2023-06-14T02:31:38;14.93;;;7.10;;
72125;SDS011;59999;51.676;22.650;2023-06-14T02:34:04;13.53;;;7.30;;
72125;SDS011;59999;51.676;22.650;2023-06-14T02:36:30;16.40;;;7.45;;
72125;SDS011;59999;51.676;22.650;2023-06-14T02:38:56;13.52;;;6.95;;
72125;SDS011;59999;51.676;22.650;2023-06-14T02:41:25;14.48;;;7.55;;
72125;SDS011;59999;51.676;22.650;2023-06-14T02:43:52;14.87;;;7.47;;
72125;SDS011;59999;51.676;22.650;2023-06-14T02:46:19;13.82;;;6.80;;
72125;SDS011;59999;51.676;22.650;2023-06-14T02:48:45;15.73;;;7.32;;
72125;SDS011;59999;51.676;22.650;2023-06-14T02:51:11;14.55;;;7.20;;
72125;SDS011;59999;51.676;22.650;2023-06-14T02:53:38;17.43;;;7.20;;
72125;SDS011;59999;51.676;22.650;2023-06-14T02:56:04;12.93;;;6.90;;
72125;SDS011;59999;51.676;22.650;2023-06-14T02:58:30;18.10;;;7.38;;
72125;SDS011;59999;51.676;22.650;2023-06-14T03:00:56;15.32;;;7.38;;
72125;SDS011;59999;51.676;22.650;2023-06-14T03:03:22;14.23;;;7.50;;
72125;SDS011;59999;51.676;22.650;2023-06-14T03:05:50;14.73;;;7.10;;
72125;SDS011;59999;51.676;22.650;2023-06-14T03:08:16;14.70;;;6.90;;
72125;SDS011;59999;51.676;22.650;2023-06-14T03:10:48;15.15;;;6.72;;
72125;SDS011;59999;51.676;22.650;2023-06-14T03:13:15;13.40;;;6.40;;
72125;SDS011;59999;51.676;22.650;2023-06-14T03:15:46;18.10;;;7.50;;
72125;SDS011;59999;51.676;22.650;2023-06-14T03:18:16;13.07;;;6.90;;
72125;SDS011;59999;51.676;22.650;2023-06-14T03:20:42;12.52;;;7.00;;
72125;SDS011;59999;51.676;22.650;2023-06-14T03:23:10;12.77;;;7.05;;
72125;SDS011;59999;51.676;22.650;2023-06-14T03:25:38;12.60;;;7.20;;
72125;SDS011;59999;51.676;22.650;2023-06-14T03:28:05;14.17;;;6.67;;
72125;SDS011;59999;51.676;22.650;2023-06-14T03:30:32;15.30;;;7.88;;
72125;SDS011;59999;51.676;22.650;2023-06-14T03:32:57;15.20;;;6.60;;
72125;SDS011;59999;51.676;22.650;2023-06-14T03:35:28;13.27;;;6.32;;
72125;SDS011;59999;51.676;22.650;2023-06-14T03:37:54;11.93;;;6.00;;
72125;SDS011;59999;51.676;22.650;2023-06-14T03:40:20;14.43;;;6.20;;
72125;SDS011;59999;51.676;22.650;2023-06-14T03:42:47;16.35;;;6.43;;
72125;SDS011;59999;51.676;22.650;2023-06-14T03:45:13;15.43;;;6.75;;
72125;SDS011;59999;51.676;22.650;2023-06-14T03:47:39;11.53;;;6.13;;
72125;SDS011;59999;51.676;22.650;2023-06-14T03:50:05;15.70;;;6.60;;
72125;SDS011;59999;51.676;22.650;2023-06-14T03:52:31;15.68;;;6.90;;
72125;SDS011;59999;51.676;22.650;2023-06-14T03:54:59;16.35;;;6.72;;
72125;SDS011;59999;51.676;22.650;2023-06-14T03:57:25;12.20;;;6.20;;
72125;SDS011;59999;51.676;22.650;2023-06-14T03:59:52;16.88;;;6.03;;
72125;SDS011;59999;51.676;22.650;2023-06-14T04:02:17;13.23;;;7.07;;
72125;SDS011;59999;51.676;22.650;2023-06-14T04:04:44;11.75;;;5.70;;
72125;SDS011;59999;51.676;22.650;2023-06-14T04:07:13;13.05;;;6.30;;
72125;SDS011;59999;51.676;22.650;2023-06-14T04:09:45;14.13;;;6.38;;
72125;SDS011;59999;51.676;22.650;2023-06-14T04:12:11;16.60;;;6.20;;
72125;SDS011;59999;51.676;22.650;2023-06-14T04:14:38;10.00;;;5.80;;
72125;SDS011;59999;51.676;22.650;2023-06-14T04:17:05;13.20;;;6.32;;
72125;SDS011;59999;51.676;22.650;2023-06-14T04:19:31;10.88;;;6.43;;
72125;SDS011;59999;51.676;22.650;2023-06-14T04:21:57;10.77;;;5.90;;
72125;SDS011;59999;51.676;22.650;2023-06-14T04:24:25;11.57;;;6.18;;
72125;SDS011;59999;51.676;22.650;2023-06-14T04:27:00;13.20;;;6.55;;
72125;SDS011;59999;51.676;22.650;2023-06-14T04:29:27;12.88;;;6.30;;
72125;SDS011;59999;51.676;22.650;2023-06-14T04:31:55;10.48;;;6.03;;
72125;SDS011;59999;51.676;22.650;2023-06-14T04:34:25;15.63;;;6.00;;
72125;SDS011;59999;51.676;22.650;2023-06-14T04:36:55;14.20;;;6.22;;
72125;SDS011;59999;51.676;22.650;2023-06-14T04:39:22;12.45;;;5.80;;
72125;SDS011;59999;51.676;22.650;2023-06-14T04:41:48;14.35;;;6.05;;
72125;SDS011;59999;51.676;22.650;2023-06-14T04:44:18;13.70;;;6.45;;
72125;SDS011;59999;51.676;22.650;2023-06-14T04:46:49;11.20;;;5.73;;
72125;SDS011;59999;51.676;22.650;2023-06-14T04:49:15;10.18;;;5.28;;
72125;SDS011;59999;51.676;22.650;2023-06-14T04:51:42;16.63;;;5.90;;
72125;SDS011;59999;51.676;22.650;2023-06-14T04:54:09;11.60;;;5.93;;
72125;SDS011;59999;51.676;22.650;2023-06-14T04:56:39;11.57;;;5.65;;
72125;SDS011;59999;51.676;22.650;2023-06-14T04:59:08;9.23;;;5.07;;
72125;SDS011;59999;51.676;22.650;2023-06-14T05:01:36;11.52;;;5.13;;
72125;SDS011;59999;51.676;22.650;2023-06-14T05:04:03;11.93;;;5.03;;
72125;SDS011;59999;51.676;22.650;2023-06-14T05:06:29;11.77;;;5.75;;
72125;SDS011;59999;51.676;22.650;2023-06-14T05:08:56;10.82;;;4.72;;
72125;SDS011;59999;51.676;22.650;2023-06-14T05:11:22;14.03;;;4.50;;
72125;SDS011;59999;51.676;22.650;2023-06-14T05:13:51;10.80;;;5.72;;
72125;SDS011;59999;51.676;22.650;2023-06-14T05:16:18;9.30;;;5.15;;
72125;SDS011;59999;51.676;22.650;2023-06-14T05:18:45;9.07;;;4.38;;
72125;SDS011;59999;51.676;22.650;2023-06-14T05:21:13;8.67;;;4.23;;
72125;SDS011;59999;51.676;22.650;2023-06-14T05:23:43;12.27;;;4.30;;
72125;SDS011;59999;51.676;22.650;2023-06-14T05:26:10;10.05;;;5.20;;
72125;SDS011;59999;51.676;22.650;2023-06-14T05:28:36;13.10;;;5.28;;
72125;SDS011;59999;51.676;22.650;2023-06-14T05:31:02;11.95;;;4.82;;
72125;SDS011;59999;51.676;22.650;2023-06-14T05:33:28;10.37;;;5.07;;
72125;SDS011;59999;51.676;22.650;2023-06-14T05:35:55;12.10;;;4.80;;
72125;SDS011;59999;51.676;22.650;2023-06-14T05:38:21;12.35;;;5.07;;
72125;SDS011;59999;51.676;22.650;2023-06-14T05:40:47;10.77;;;5.40;;
72125;SDS011;59999;51.676;22.650;2023-06-14T05:43:13;9.50;;;5.50;;
72125;SDS011;59999;51.676;22.650;2023-06-14T05:45:39;10.75;;;5.82;;
72125;SDS011;59999;51.676;22.650;2023-06-14T05:48:05;11.50;;;5.38;;
72125;SDS011;59999;51.676;22.650;2023-06-14T05:50:31;11.30;;;5.80;;
72125;SDS011;59999;51.676;22.650;2023-06-14T05:52:57;13.40;;;5.70;;
72125;SDS011;59999;51.676;22.650;2023-06-14T05:55:23;12.80;;;5.80;;
72125;SDS011;59999;51.676;22.650;2023-06-14T05:57:50;11.23;;;5.35;;
72125;SDS011;59999;51.676;22.650;2023-06-14T06:00:17;10.88;;;5.63;;
72125;SDS011;59999;51.676;22.650;2023-06-14T06:02:43;11.35;;;5.78;;
72125;SDS011;59999;51.676;22.650;2023-06-14T06:05:11;11.75;;;5.70;;
72125;SDS011;59999;51.676;22.650;2023-06-14T06:07:38;10.97;;;5.73;;
72125;SDS011;59999;51.676;22.650;2023-06-14T06:10:06;10.27;;;5.57;;
72125;SDS011;59999;51.676;22.650;2023-06-14T06:12:32;11.85;;;5.40;;
72125;SDS011;59999;51.676;22.650;2023-06-14T06:14:59;9.02;;;5.10;;
72125;SDS011;59999;51.676;22.650;2023-06-14T06:17:25;12.25;;;5.43;;
72125;SDS011;59999;51.676;22.650;2023-06-14T06:19:52;10.40;;;5.90;;
72125;SDS011;59999;51.676;22.650;2023-06-14T06:22:17;9.88;;;5.60;;
72125;SDS011;59999;51.676;22.650;2023-06-14T06:24:43;10.80;;;5.78;;
72125;SDS011;59999;51.676;22.650;2023-06-14T06:27:10;12.35;;;6.93;;
72125;SDS011;59999;51.676;22.650;2023-06-14T06:29:38;16.67;;;6.30;;
72125;SDS011;59999;51.676;22.650;2023-06-14T06:32:04;11.15;;;5.88;;
72125;SDS011;59999;51.676;22.650;2023-06-14T06:34:30;11.20;;;6.15;;
72125;SDS011;59999;51.676;22.650;2023-06-14T06:36:56;9.35;;;5.57;;
72125;SDS011;59999;51.676;22.650;2023-06-14T06:39:22;10.13;;;6.43;;
72125;SDS011;59999;51.676;22.650;2023-06-14T06:41:48;11.38;;;6.00;;
72125;SDS011;59999;51.676;22.650;2023-06-14T06:44:14;10.18;;;6.13;;
72125;SDS011;59999;51.676;22.650;2023-06-14T06:46:40;14.10;;;6.77;;
72125;SDS011;59999;51.676;22.650;2023-06-14T06:49:08;14.00;;;6.83;;
72125;SDS011;59999;51.676;22.650;2023-06-14T06:51:37;10.82;;;6.68;;
72125;SDS011;59999;51.676;22.650;2023-06-14T06:54:07;11.05;;;7.05;;
72125;SDS011;59999;51.676;22.650;2023-06-14T06:56:34;14.10;;;6.20;;
72125;SDS011;59999;51.676;22.650;2023-06-14T06:59:01;14.95;;;6.97;;
72125;SDS011;59999;51.676;22.650;2023-06-14T07:01:27;12.67;;;6.57;;
72125;SDS011;59999;51.676;22.650;2023-06-14T07:03:54;12.52;;;6.72;;
72125;SDS011;59999;51.676;22.650;2023-06-14T07:06:21;12.23;;;6.45;;
72125;SDS011;59999;51.676;22.650;2023-06-14T07:08:47;11.25;;;6.32;;
72125;SDS011;59999;51.676;22.650;2023-06-14T07:11:16;12.15;;;6.95;;
72125;SDS011;59999;51.676;22.650;2023-06-14T07:13:42;14.30;;;8.00;;
72125;SDS011;59999;51.676;22.650;2023-06-14T07:16:08;12.93;;;6.68;;
72125;SDS011;59999;51.676;22.650;2023-06-14T07:18:34;11.80;;;6.70;;
72125;SDS011;59999;51.676;22.650;2023-06-14T07:21:01;13.32;;;7.07;;
72125;SDS011;59999;51.676;22.650;2023-06-14T07:23:27;10.83;;;6.60;;
72125;SDS011;59999;51.676;22.650;2023-06-14T07:25:53;11.63;;;7.18;;
72125;SDS011;59999;51.676;22.650;2023-06-14T07:28:19;12.13;;;6.78;;
72125;SDS011;59999;51.676;22.650;2023-06-14T07:30:46;10.00;;;6.75;;
72125;SDS011;59999;51.676;22.650;2023-06-14T07:33:14;12.18;;;5.78;;
72125;SDS011;59999;51.676;22.650;2023-06-14T07:35:39;12.47;;;7.13;;
72125;SDS011;59999;51.676;22.650;2023-06-14T07:38:06;12.23;;;7.25;;
72125;SDS011;59999;51.676;22.650;2023-06-14T07:40:31;13.23;;;7.37;;
72125;SDS011;59999;51.676;22.650;2023-06-14T07:42:58;14.37;;;7.20;;
72125;SDS011;59999;51.676;22.650;2023-06-14T07:45:23;12.43;;;7.03;;
72125;SDS011;59999;51.676;22.650;2023-06-14T07:47:50;10.48;;;6.20;;
72125;SDS011;59999;51.676;22.650;2023-06-14T07:50:16;13.30;;;6.05;;
72125;SDS011;59999;51.676;22.650;2023-06-14T07:52:43;10.57;;;6.37;;
72125;SDS011;59999;51.676;22.650;2023-06-14T07:55:09;11.52;;;6.03;;
72125;SDS011;59999;51.676;22.650;2023-06-14T07:57:35;11.23;;;6.10;;
72125;SDS011;59999;51.676;22.650;2023-06-14T08:00:02;9.02;;;5.57;;
72125;SDS011;59999;51.676;22.650;2023-06-14T08:02:32;11.82;;;5.68;;
72125;SDS011;59999;51.676;22.650;2023-06-14T08:04:58;11.20;;;5.93;;
72125;SDS011;59999;51.676;22.650;2023-06-14T08:07:24;12.50;;;5.80;;
72125;SDS011;59999;51.676;22.650;2023-06-14T08:10:15;11.85;;;6.00;;
72125;SDS011;59999;51.676;22.650;2023-06-14T08:13:06;10.07;;;5.75;;
72125;SDS011;59999;51.676;22.650;2023-06-14T08:15:57;10.00;;;5.72;;
72125;SDS011;59999;51.676;22.650;2023-06-14T08:18:48;10.87;;;6.20;;
72125;SDS011;59999;51.676;22.650;2023-06-14T08:21:15;10.95;;;5.63;;
72125;SDS011;59999;51.676;22.650;2023-06-14T08:23:41;9.38;;;5.00;;
72125;SDS011;59999;51.676;22.650;2023-06-14T08:26:09;11.48;;;4.78;;
72125;SDS011;59999;51.676;22.650;2023-06-14T08:28:35;8.60;;;4.07;;
72125;SDS011;59999;51.676;22.650;2023-06-14T08:31:01;9.23;;;4.40;;
72125;SDS011;59999;51.676;22.650;2023-06-14T08:33:28;8.57;;;4.32;;
72125;SDS011;59999;51.676;22.650;2023-06-14T08:35:54;9.10;;;4.65;;
72125;SDS011;59999;51.676;22.650;2023-06-14T08:38:20;9.10;;;4.63;;
72125;SDS011;59999;51.676;22.650;2023-06-14T08:40:50;12.30;;;5.13;;
72125;SDS011;59999;51.676;22.650;2023-06-14T08:43:16;10.60;;;4.80;;
72125;SDS011;59999;51.676;22.650;2023-06-14T08:45:43;8.90;;;5.05;;
72125;SDS011;59999;51.676;22.650;2023-06-14T08:48:11;8.35;;;5.00;;
72125;SDS011;59999;51.676;22.650;2023-06-14T08:50:40;9.40;;;5.57;;
72125;SDS011;59999;51.676;22.650;2023-06-14T08:53:06;10.43;;;5.32;;
72125;SDS011;59999;51.676;22.650;2023-06-14T08:55:36;9.47;;;5.37;;
72125;SDS011;59999;51.676;22.650;2023-06-14T08:58:04;9.38;;;5.20;;
72125;SDS011;59999;51.676;22.650;2023-06-14T09:00:31;12.55;;;4.63;;
72125;SDS011;59999;51.676;22.650;2023-06-14T09:02:58;8.85;;;5.30;;
72125;SDS011;59999;51.676;22.650;2023-06-14T09:05:24;8.75;;;4.88;;
72125;SDS011;59999;51.676;22.650;2023-06-14T09:07:51;8.07;;;4.43;;
72125;SDS011;59999;51.676;22.650;2023-06-14T09:10:20;11.05;;;5.45;;
72125;SDS011;59999;51.676;22.650;2023-06-14T09:12:47;8.98;;;4.68;;
72125;SDS011;59999;51.676;22.650;2023-06-14T09:15:13;10.20;;;5.10;;
72125;SDS011;59999;51.676;22.650;2023-06-14T09:17:39;10.75;;;4.75;;
72125;SDS011;59999;51.676;22.650;2023-06-14T09:20:07;8.63;;;4.93;;
72125;SDS011;59999;51.676;22.650;2023-06-14T09:22:43;10.93;;;5.13;;
72125;SDS011;59999;51.676;22.650;2023-06-14T09:25:10;8.13;;;5.07;;
72125;SDS011;59999;51.676;22.650;2023-06-14T09:27:38;9.27;;;5.00;;
72125;SDS011;59999;51.676;22.650;2023-06-14T09:30:05;8.90;;;4.28;;
72125;SDS011;59999;51.676;22.650;2023-06-14T09:32:38;10.07;;;4.80;;
72125;SDS011;59999;51.676;22.650;2023-06-14T09:35:06;12.70;;;5.40;;
72125;SDS011;59999;51.676;22.650;2023-06-14T09:37:32;9.93;;;5.30;;
72125;SDS011;59999;51.676;22.650;2023-06-14T09:39:59;9.93;;;5.25;;
72125;SDS011;59999;51.676;22.650;2023-06-14T09:42:25;10.57;;;5.13;;
72125;SDS011;59999;51.676;22.650;2023-06-14T09:44:54;8.20;;;5.00;;
72125;SDS011;59999;51.676;22.650;2023-06-14T09:47:21;12.10;;;4.80;;
72125;SDS011;59999;51.676;22.650;2023-06-14T09:49:48;12.20;;;6.10;;
72125;SDS011;59999;51.676;22.650;2023-06-14T09:52:16;15.35;;;7.63;;
72125;SDS011;59999;51.676;22.650;2023-06-14T09:54:47;13.07;;;6.57;;
72125;SDS011;59999;51.676;22.650;2023-06-14T09:57:16;10.10;;;4.93;;
72125;SDS011;59999;51.676;22.650;2023-06-14T09:59:46;14.13;;;7.22;;
72125;SDS011;59999;51.676;22.650;2023-06-14T10:02:21;9.93;;;5.45;;
72125;SDS011;59999;51.676;22.650;2023-06-14T10:04:50;10.32;;;5.03;;
72125;SDS011;59999;51.676;22.650;2023-06-14T10:07:48;10.93;;;5.07;;
72125;SDS011;59999;51.676;22.650;2023-06-14T10:10:18;14.13;;;5.65;;
72125;SDS011;59999;51.676;22.650;2023-06-14T10:12:44;11.05;;;6.22;;
72125;SDS011;59999;51.676;22.650;2023-06-14T10:15:12;11.90;;;6.32;;
72125;SDS011;59999;51.676;22.650;2023-06-14T10:17:47;10.00;;;5.95;;
72125;SDS011;59999;51.676;22.650;2023-06-14T10:23:25;14.50;;;5.95;;
72125;SDS011;59999;51.676;22.650;2023-06-14T10:25:54;12.95;;;5.95;;
72125;SDS011;59999;51.676;22.650;2023-06-14T10:28:22;9.30;;;5.63;;
72125;SDS011;59999;51.676;22.650;2023-06-14T10:31:07;10.23;;;5.50;;
72125;SDS011;59999;51.676;22.650;2023-06-14T10:33:35;9.63;;;5.93;;
72125;SDS011;59999;51.676;22.650;2023-06-14T10:39:21;13.15;;;5.82;;
72125;SDS011;59999;51.676;22.650;2023-06-14T10:41:53;10.07;;;6.38;;
72125;SDS011;59999;51.676;22.650;2023-06-14T10:46:46;12.47;;;6.03;;
72125;SDS011;59999;51.676;22.650;2023-06-14T10:49:16;12.98;;;7.00;;
72125;SDS011;59999;51.676;22.650;2023-06-14T10:51:49;10.73;;;6.43;;
72125;SDS011;59999;51.676;22.650;2023-06-14T10:54:17;13.13;;;6.78;;
72125;SDS011;59999;51.676;22.650;2023-06-14T10:56:47;11.13;;;6.32;;
72125;SDS011;59999;51.676;22.650;2023-06-14T10:59:14;10.23;;;6.50;;
72125;SDS011;59999;51.676;22.650;2023-06-14T11:01:43;11.85;;;6.72;;
72125;SDS011;59999;51.676;22.650;2023-06-14T11:04:49;10.55;;;6.03;;
72125;SDS011;59999;51.676;22.650;2023-06-14T11:12:41;11.93;;;6.23;;
72125;SDS011;59999;51.676;22.650;2023-06-14T11:15:14;9.40;;;5.97;;
72125;SDS011;59999;51.676;22.650;2023-06-14T11:17:50;12.07;;;6.85;;
72125;SDS011;59999;51.676;22.650;2023-06-14T11:20:18;14.32;;;7.43;;
72125;SDS011;59999;51.676;22.650;2023-06-14T11:22:45;11.80;;;6.82;;
72125;SDS011;59999;51.676;22.650;2023-06-14T11:25:11;13.93;;;7.20;;
72125;SDS011;59999;51.676;22.650;2023-06-14T11:27:38;21.98;;;9.30;;
72125;SDS011;59999;51.676;22.650;2023-06-14T11:30:07;14.05;;;6.97;;
72125;SDS011;59999;51.676;22.650;2023-06-14T11:32:35;12.68;;;7.07;;
72125;SDS011;59999;51.676;22.650;2023-06-14T11:35:02;15.93;;;8.83;;
72125;SDS011;59999;51.676;22.650;2023-06-14T11:37:30;11.23;;;6.88;;
72125;SDS011;59999;51.676;22.650;2023-06-14T11:40:00;13.48;;;7.55;;
72125;SDS011;59999;51.676;22.650;2023-06-14T11:42:26;14.02;;;7.35;;
72125;SDS011;59999;51.676;22.650;2023-06-14T11:44:55;14.52;;;7.80;;
72125;SDS011;59999;51.676;22.650;2023-06-14T11:47:22;11.60;;;7.23;;
72125;SDS011;59999;51.676;22.650;2023-06-14T11:49:48;11.25;;;7.30;;
72125;SDS011;59999;51.676;22.650;2023-06-14T11:52:14;12.38;;;6.95;;
72125;SDS011;59999;51.676;22.650;2023-06-14T11:54:40;16.48;;;7.05;;
72125;SDS011;59999;51.676;22.650;2023-06-14T11:57:07;15.43;;;7.43;;
72125;SDS011;59999;51.676;22.650;2023-06-14T11:59:51;13.03;;;7.07;;
72125;SDS011;59999;51.676;22.650;2023-06-14T12:02:18;13.35;;;7.00;;
72125;SDS011;59999;51.676;22.650;2023-06-14T12:04:47;14.73;;;7.38;;
72125;SDS011;59999;51.676;22.650;2023-06-14T12:07:14;13.45;;;6.72;;
72125;SDS011;59999;51.676;22.650;2023-06-14T12:09:43;14.20;;;7.10;;
72125;SDS011;59999;51.676;22.650;2023-06-14T12:12:37;15.57;;;7.10;;
72125;SDS011;59999;51.676;22.650;2023-06-14T12:17:49;10.32;;;6.45;;
72125;SDS011;59999;51.676;22.650;2023-06-14T12:20:16;11.60;;;6.95;;
72125;SDS011;59999;51.676;22.650;2023-06-14T12:22:55;12.75;;;7.38;;
72125;SDS011;59999;51.676;22.650;2023-06-14T12:28:05;13.15;;;7.43;;
72125;SDS011;59999;51.676;22.650;2023-06-14T12:30:33;11.15;;;6.78;;
72125;SDS011;59999;51.676;22.650;2023-06-14T12:33:00;13.50;;;7.70;;
72125;SDS011;59999;51.676;22.650;2023-06-14T12:35:29;12.38;;;7.07;;
72125;SDS011;59999;51.676;22.650;2023-06-14T12:37:56;12.90;;;7.00;;
72125;SDS011;59999;51.676;22.650;2023-06-14T12:40:22;11.45;;;7.40;;
72125;SDS011;59999;51.676;22.650;2023-06-14T12:42:48;11.98;;;7.45;;
72125;SDS011;59999;51.676;22.650;2023-06-14T12:45:14;11.48;;;6.80;;
72125;SDS011;59999;51.676;22.650;2023-06-14T12:47:41;11.30;;;7.13;;
72125;SDS011;59999;51.676;22.650;2023-06-14T12:50:07;13.18;;;7.38;;
72125;SDS011;59999;51.676;22.650;2023-06-14T12:52:34;11.93;;;7.35;;
72125;SDS011;59999;51.676;22.650;2023-06-14T12:55:05;13.48;;;7.75;;
72125;SDS011;59999;51.676;22.650;2023-06-14T12:57:32;12.88;;;7.15;;
72125;SDS011;59999;51.676;22.650;2023-06-14T12:59:59;11.47;;;7.40;;
72125;SDS011;59999;51.676;22.650;2023-06-14T13:02:26;13.02;;;7.78;;
72125;SDS011;59999;51.676;22.650;2023-06-14T13:04:52;14.70;;;7.13;;
72125;SDS011;59999;51.676;22.650;2023-06-14T13:07:19;12.25;;;7.95;;
72125;SDS011;59999;51.676;22.650;2023-06-14T13:09:45;13.07;;;7.73;;
72125;SDS011;59999;51.676;22.650;2023-06-14T13:12:11;11.55;;;7.35;;
72125;SDS011;59999;51.676;22.650;2023-06-14T13:14:37;13.35;;;8.02;;
72125;SDS011;59999;51.676;22.650;2023-06-14T13:17:07;11.68;;;7.22;;
72125;SDS011;59999;51.676;22.650;2023-06-14T13:19:34;18.60;;;9.30;;
72125;SDS011;59999;51.676;22.650;2023-06-14T13:22:00;15.53;;;7.60;;
72125;SDS011;59999;51.676;22.650;2023-06-14T13:24:26;20.13;;;7.75;;
72125;SDS011;59999;51.676;22.650;2023-06-14T13:26:54;11.98;;;6.85;;
72125;SDS011;59999;51.676;22.650;2023-06-14T13:29:19;16.90;;;7.63;;
72125;SDS011;59999;51.676;22.650;2023-06-14T13:31:46;17.10;;;9.30;;
72125;SDS011;59999;51.676;22.650;2023-06-14T13:34:12;20.40;;;10.65;;
72125;SDS011;59999;51.676;22.650;2023-06-14T13:36:38;14.05;;;7.55;;
72125;SDS011;59999;51.676;22.650;2023-06-14T13:39:04;14.68;;;7.85;;
72125;SDS011;59999;51.676;22.650;2023-06-14T13:41:31;15.63;;;8.00;;
72125;SDS011;59999;51.676;22.650;2023-06-14T13:43:59;13.00;;;7.82;;
72125;SDS011;59999;51.676;22.650;2023-06-14T13:46:26;12.52;;;7.50;;
72125;SDS011;59999;51.676;22.650;2023-06-14T13:48:52;17.15;;;9.23;;
72125;SDS011;59999;51.676;22.650;2023-06-14T13:51:18;17.00;;;8.82;;
72125;SDS011;59999;51.676;22.650;2023-06-14T13:53:47;12.80;;;7.17;;
72125;SDS011;59999;51.676;22.650;2023-06-14T13:56:15;12.10;;;6.97;;
72125;SDS011;59999;51.676;22.650;2023-06-14T13:58:41;10.68;;;6.78;;
72125;SDS011;59999;51.676;22.650;2023-06-14T14:01:07;15.48;;;6.88;;
72125;SDS011;59999;51.676;22.650;2023-06-14T14:03:34;11.80;;;6.57;;
72125;SDS011;59999;51.676;22.650;2023-06-14T14:06:01;12.83;;;6.97;;
72125;SDS011;59999;51.676;22.650;2023-06-14T14:08:27;10.93;;;6.18;;
72125;SDS011;59999;51.676;22.650;2023-06-14T14:10:54;12.48;;;6.45;;
72125;SDS011;59999;51.676;22.650;2023-06-14T14:13:21;11.68;;;6.35;;
72125;SDS011;59999;51.676;22.650;2023-06-14T14:15:47;11.88;;;6.35;;
72125;SDS011;59999;51.676;22.650;2023-06-14T14:18:14;10.07;;;6.50;;
72125;SDS011;59999;51.676;22.650;2023-06-14T14:20:41;10.45;;;6.78;;
72125;SDS011;59999;51.676;22.650;2023-06-14T14:23:07;13.38;;;6.93;;
72125;SDS011;59999;51.676;22.650;2023-06-14T14:25:33;12.63;;;6.80;;
72125;SDS011;59999;51.676;22.650;2023-06-14T14:27:58;9.47;;;6.00;;
72125;SDS011;59999;51.676;22.650;2023-06-14T14:30:25;12.25;;;6.88;;
72125;SDS011;59999;51.676;22.650;2023-06-14T14:32:51;11.75;;;6.00;;
72125;SDS011;59999;51.676;22.650;2023-06-14T14:35:18;11.43;;;6.28;;
72125;SDS011;59999;51.676;22.650;2023-06-14T14:37:44;11.32;;;6.85;;
72125;SDS011;59999;51.676;22.650;2023-06-14T14:40:11;12.37;;;6.73;;
72125;SDS011;59999;51.676;22.650;2023-06-14T14:42:37;11.80;;;6.80;;
72125;SDS011;59999;51.676;22.650;2023-06-14T14:45:03;14.75;;;7.07;;
72125;SDS011;59999;51.676;22.650;2023-06-14T14:47:30;14.45;;;7.25;;
72125;SDS011;59999;51.676;22.650;2023-06-14T14:49:56;24.17;;;7.20;;
72125;SDS011;59999;51.676;22.650;2023-06-14T14:52:21;10.93;;;6.30;;
72125;SDS011;59999;51.676;22.650;2023-06-14T14:54:48;17.70;;;7.65;;